sensor_id;sensor_type;location;lat;lon;timestamp;P1;durP1;ratioP1;P2;durP2;ratioP2
8825;SDS011;4449;50.872;4.714;2022-07-23T00:00:03;13.57;;;10.65;;
8825;SDS011;4449;50.872;4.714;2022-07-23T00:02:31;13.35;;;11.48;;
8825;SDS011;4449;50.872;4.714;2022-07-23T00:04:59;12.88;;;10.68;;
8825;SDS011;4449;50.872;4.714;2022-07-23T00:07:27;11.90;;;10.80;;
8825;SDS011;4449;50.872;4.714;2022-07-23T00:09:56;11.80;;;10.23;;
8825;SDS011;4449;50.872;4.714;2022-07-23T00:12:24;11.60;;;10.40;;
8825;SDS011;4449;50.872;4.714;2022-07-23T00:14:52;12.70;;;10.77;;
8825;SDS011;4449;50.872;4.714;2022-07-23T00:17:19;11.45;;;10.35;;
8825;SDS011;4449;50.872;4.714;2022-07-23T00:19:47;11.60;;;10.45;;
8825;SDS011;4449;50.872;4.714;2022-07-23T00:22:15;12.75;;;10.90;;
8825;SDS011;4449;50.872;4.714;2022-07-23T00:24:43;12.25;;;10.98;;
8825;SDS011;4449;50.872;4.714;2022-07-23T00:27:12;12.48;;;11.18;;
8825;SDS011;4449;50.872;4.714;2022-07-23T00:29:40;12.18;;;10.98;;
8825;SDS011;4449;50.872;4.714;2022-07-23T00:32:07;12.52;;;11.05;;
8825;SDS011;4449;50.872;4.714;2022-07-23T00:34:35;12.95;;;11.05;;
8825;SDS011;4449;50.872;4.714;2022-07-23T00:37:03;15.00;;;11.23;;
8825;SDS011;4449;50.872;4.714;2022-07-23T00:39:31;13.13;;;11.52;;
8825;SDS011;4449;50.872;4.714;2022-07-23T00:41:58;14.55;;;11.55;;
8825;SDS011;4449;50.872;4.714;2022-07-23T00:44:28;14.27;;;11.02;;
8825;SDS011;4449;50.872;4.714;2022-07-23T00:46:56;12.83;;;11.40;;
8825;SDS011;4449;50.872;4.714;2022-07-23T00:49:24;12.50;;;11.20;;
8825;SDS011;4449;50.872;4.714;2022-07-23T00:51:52;13.75;;;11.43;;
8825;SDS011;4449;50.872;4.714;2022-07-23T00:54:21;14.77;;;12.57;;
8825;SDS011;4449;50.872;4.714;2022-07-23T00:56:51;13.73;;;11.38;;
8825;SDS011;4449;50.872;4.714;2022-07-23T00:59:19;14.45;;;11.40;;
8825;SDS011;4449;50.872;4.714;2022-07-23T01:01:48;14.85;;;10.82;;
8825;SDS011;4449;50.872;4.714;2022-07-23T01:04:16;13.15;;;11.68;;
8825;SDS011;4449;50.872;4.714;2022-07-23T01:06:44;13.68;;;11.63;;
8825;SDS011;4449;50.872;4.714;2022-07-23T01:09:12;15.85;;;12.50;;
8825;SDS011;4449;50.872;4.714;2022-07-23T01:11:40;13.18;;;11.73;;
8825;SDS011;4449;50.872;4.714;2022-07-23T01:14:09;14.52;;;11.82;;
8825;SDS011;4449;50.872;4.714;2022-07-23T01:16:37;12.85;;;11.43;;
8825;SDS011;4449;50.872;4.714;2022-07-23T01:19:06;13.33;;;11.53;;
8825;SDS011;4449;50.872;4.714;2022-07-23T01:21:35;15.60;;;12.00;;
8825;SDS011;4449;50.872;4.714;2022-07-23T01:24:06;14.90;;;11.67;;
8825;SDS011;4449;50.872;4.714;2022-07-23T01:26:34;14.15;;;11.70;;
8825;SDS011;4449;50.872;4.714;2022-07-23T01:29:02;13.05;;;10.60;;
8825;SDS011;4449;50.872;4.714;2022-07-23T01:31:30;12.48;;;11.18;;
8825;SDS011;4449;50.872;4.714;2022-07-23T01:33:58;12.80;;;11.30;;
8825;SDS011;4449;50.872;4.714;2022-07-23T01:36:26;13.18;;;11.63;;
8825;SDS011;4449;50.872;4.714;2022-07-23T01:38:54;14.60;;;11.33;;
8825;SDS011;4449;50.872;4.714;2022-07-23T01:41:23;12.88;;;11.25;;
8825;SDS011;4449;50.872;4.714;2022-07-23T01:43:50;12.68;;;11.38;;
8825;SDS011;4449;50.872;4.714;2022-07-23T01:46:18;12.85;;;11.38;;
8825;SDS011;4449;50.872;4.714;2022-07-23T01:48:46;12.85;;;11.20;;
8825;SDS011;4449;50.872;4.714;2022-07-23T01:51:13;14.90;;;11.30;;
8825;SDS011;4449;50.872;4.714;2022-07-23T01:53:41;15.15;;;11.27;;
8825;SDS011;4449;50.872;4.714;2022-07-23T01:56:09;13.23;;;11.43;;
8825;SDS011;4449;50.872;4.714;2022-07-23T01:58:38;16.75;;;11.98;;
8825;SDS011;4449;50.872;4.714;2022-07-23T02:01:06;14.40;;;12.00;;
8825;SDS011;4449;50.872;4.714;2022-07-23T02:03:33;13.63;;;11.53;;
8825;SDS011;4449;50.872;4.714;2022-07-23T02:06:01;13.20;;;10.93;;
8825;SDS011;4449;50.872;4.714;2022-07-23T02:08:29;11.85;;;10.60;;
8825;SDS011;4449;50.872;4.714;2022-07-23T02:10:57;11.60;;;10.40;;
8825;SDS011;4449;50.872;4.714;2022-07-23T02:13:24;14.85;;;11.13;;
8825;SDS011;4449;50.872;4.714;2022-07-23T02:15:55;11.50;;;10.32;;
8825;SDS011;4449;50.872;4.714;2022-07-23T02:18:23;12.02;;;10.77;;
8825;SDS011;4449;50.872;4.714;2022-07-23T02:20:51;15.63;;;10.57;;
8825;SDS011;4449;50.872;4.714;2022-07-23T02:23:18;11.73;;;10.57;;
8825;SDS011;4449;50.872;4.714;2022-07-23T02:25:46;12.57;;;10.75;;
8825;SDS011;4449;50.872;4.714;2022-07-23T02:28:14;12.95;;;10.55;;
8825;SDS011;4449;50.872;4.714;2022-07-23T02:30:45;14.30;;;10.90;;
8825;SDS011;4449;50.872;4.714;2022-07-23T02:33:14;11.73;;;10.40;;
8825;SDS011;4449;50.872;4.714;2022-07-23T02:35:41;11.95;;;10.27;;
8825;SDS011;4449;50.872;4.714;2022-07-23T02:38:09;12.05;;;10.68;;
8825;SDS011;4449;50.872;4.714;2022-07-23T02:40:37;12.48;;;11.05;;
8825;SDS011;4449;50.872;4.714;2022-07-23T02:43:05;12.35;;;10.70;;
8825;SDS011;4449;50.872;4.714;2022-07-23T02:45:33;13.40;;;11.13;;
8825;SDS011;4449;50.872;4.714;2022-07-23T02:48:01;12.67;;;10.70;;
8825;SDS011;4449;50.872;4.714;2022-07-23T02:50:30;14.47;;;10.53;;
8825;SDS011;4449;50.872;4.714;2022-07-23T02:52:58;14.40;;;11.23;;
8825;SDS011;4449;50.872;4.714;2022-07-23T02:55:25;13.43;;;10.75;;
8825;SDS011;4449;50.872;4.714;2022-07-23T02:57:56;13.70;;;11.55;;
8825;SDS011;4449;50.872;4.714;2022-07-23T03:00:24;14.00;;;10.95;;
8825;SDS011;4449;50.872;4.714;2022-07-23T03:02:52;13.45;;;11.27;;
8825;SDS011;4449;50.872;4.714;2022-07-23T03:05:20;15.07;;;11.65;;
8825;SDS011;4449;50.872;4.714;2022-07-23T03:07:50;12.07;;;10.88;;
8825;SDS011;4449;50.872;4.714;2022-07-23T03:10:17;15.13;;;11.35;;
8825;SDS011;4449;50.872;4.714;2022-07-23T03:12:45;14.43;;;11.18;;
8825;SDS011;4449;50.872;4.714;2022-07-23T03:15:13;12.03;;;10.73;;
8825;SDS011;4449;50.872;4.714;2022-07-23T03:17:41;13.00;;;10.93;;
8825;SDS011;4449;50.872;4.714;2022-07-23T03:20:09;12.60;;;10.55;;
8825;SDS011;4449;50.872;4.714;2022-07-23T03:22:36;12.15;;;10.68;;
8825;SDS011;4449;50.872;4.714;2022-07-23T03:25:06;12.07;;;10.73;;
8825;SDS011;4449;50.872;4.714;2022-07-23T03:27:34;13.23;;;11.60;;
8825;SDS011;4449;50.872;4.714;2022-07-23T03:30:02;14.13;;;10.65;;
8825;SDS011;4449;50.872;4.714;2022-07-23T03:32:30;12.05;;;10.75;;
8825;SDS011;4449;50.872;4.714;2022-07-23T03:34:58;12.20;;;10.90;;
8825;SDS011;4449;50.872;4.714;2022-07-23T03:37:25;12.40;;;11.10;;
8825;SDS011;4449;50.872;4.714;2022-07-23T03:39:56;12.55;;;11.25;;
8825;SDS011;4449;50.872;4.714;2022-07-23T03:42:26;14.35;;;11.13;;
8825;SDS011;4449;50.872;4.714;2022-07-23T03:44:54;13.13;;;11.73;;
8825;SDS011;4449;50.872;4.714;2022-07-23T03:47:21;12.75;;;11.02;;
8825;SDS011;4449;50.872;4.714;2022-07-23T03:49:49;15.15;;;11.93;;
8825;SDS011;4449;50.872;4.714;2022-07-23T03:52:20;15.23;;;11.82;;
8825;SDS011;4449;50.872;4.714;2022-07-23T03:54:48;14.95;;;12.13;;
8825;SDS011;4449;50.872;4.714;2022-07-23T03:57:15;14.35;;;12.80;;
8825;SDS011;4449;50.872;4.714;2022-07-23T03:59:44;18.80;;;13.60;;
8825;SDS011;4449;50.872;4.714;2022-07-23T04:02:12;14.32;;;12.35;;
8825;SDS011;4449;50.872;4.714;2022-07-23T04:04:40;13.75;;;12.05;;
8825;SDS011;4449;50.872;4.714;2022-07-23T04:07:08;13.52;;;11.90;;
8825;SDS011;4449;50.872;4.714;2022-07-23T04:09:35;14.90;;;12.40;;
8825;SDS011;4449;50.872;4.714;2022-07-23T04:12:03;15.75;;;12.90;;
8825;SDS011;4449;50.872;4.714;2022-07-23T04:14:31;14.10;;;12.40;;
8825;SDS011;4449;50.872;4.714;2022-07-23T04:17:01;14.43;;;12.63;;
8825;SDS011;4449;50.872;4.714;2022-07-23T04:19:29;16.33;;;12.75;;
8825;SDS011;4449;50.872;4.714;2022-07-23T04:21:56;16.47;;;12.70;;
8825;SDS011;4449;50.872;4.714;2022-07-23T04:24:24;14.20;;;12.38;;
8825;SDS011;4449;50.872;4.714;2022-07-23T04:26:55;17.20;;;13.13;;
8825;SDS011;4449;50.872;4.714;2022-07-23T04:29:23;16.00;;;12.35;;
8825;SDS011;4449;50.872;4.714;2022-07-23T04:31:50;15.40;;;13.02;;
8825;SDS011;4449;50.872;4.714;2022-07-23T04:34:23;15.25;;;12.85;;
8825;SDS011;4449;50.872;4.714;2022-07-23T04:36:52;14.48;;;12.23;;
8825;SDS011;4449;50.872;4.714;2022-07-23T04:39:19;16.35;;;12.52;;
8825;SDS011;4449;50.872;4.714;2022-07-23T04:41:50;17.85;;;13.70;;
8825;SDS011;4449;50.872;4.714;2022-07-23T04:44:18;14.02;;;12.57;;
8825;SDS011;4449;50.872;4.714;2022-07-23T04:46:45;13.32;;;11.93;;
8825;SDS011;4449;50.872;4.714;2022-07-23T04:49:13;13.68;;;11.70;;
8825;SDS011;4449;50.872;4.714;2022-07-23T04:51:42;14.07;;;11.82;;
8825;SDS011;4449;50.872;4.714;2022-07-23T04:54:10;14.32;;;12.15;;
8825;SDS011;4449;50.872;4.714;2022-07-23T04:56:38;14.57;;;12.25;;
8825;SDS011;4449;50.872;4.714;2022-07-23T04:59:05;13.18;;;11.77;;
8825;SDS011;4449;50.872;4.714;2022-07-23T05:01:33;12.65;;;11.32;;
8825;SDS011;4449;50.872;4.714;2022-07-23T05:04:01;14.00;;;12.60;;
8825;SDS011;4449;50.872;4.714;2022-07-23T05:06:29;14.65;;;11.95;;
8825;SDS011;4449;50.872;4.714;2022-07-23T05:08:58;15.88;;;12.68;;
8825;SDS011;4449;50.872;4.714;2022-07-23T05:11:26;15.30;;;12.85;;
8825;SDS011;4449;50.872;4.714;2022-07-23T05:13:54;14.13;;;12.25;;
8825;SDS011;4449;50.872;4.714;2022-07-23T05:16:21;15.45;;;12.00;;
8825;SDS011;4449;50.872;4.714;2022-07-23T05:18:52;15.25;;;12.27;;
8825;SDS011;4449;50.872;4.714;2022-07-23T05:21:20;14.80;;;12.35;;
8825;SDS011;4449;50.872;4.714;2022-07-23T05:23:48;13.73;;;11.80;;
8825;SDS011;4449;50.872;4.714;2022-07-23T05:26:17;13.45;;;12.02;;
8825;SDS011;4449;50.872;4.714;2022-07-23T05:28:45;13.95;;;11.93;;
8825;SDS011;4449;50.872;4.714;2022-07-23T05:31:12;13.90;;;12.50;;
8825;SDS011;4449;50.872;4.714;2022-07-23T05:33:42;12.50;;;10.85;;
8825;SDS011;4449;50.872;4.714;2022-07-23T05:36:09;14.95;;;12.65;;
8825;SDS011;4449;50.872;4.714;2022-07-23T05:38:37;14.38;;;12.68;;
8825;SDS011;4449;50.872;4.714;2022-07-23T05:41:05;14.18;;;12.02;;
8825;SDS011;4449;50.872;4.714;2022-07-23T05:43:34;14.18;;;11.70;;
8825;SDS011;4449;50.872;4.714;2022-07-23T05:46:02;13.75;;;11.93;;
8825;SDS011;4449;50.872;4.714;2022-07-23T05:48:30;13.23;;;11.83;;
8825;SDS011;4449;50.872;4.714;2022-07-23T05:50:57;13.23;;;11.23;;
8825;SDS011;4449;50.872;4.714;2022-07-23T05:53:26;16.20;;;11.70;;
8825;SDS011;4449;50.872;4.714;2022-07-23T05:55:54;13.03;;;11.43;;
8825;SDS011;4449;50.872;4.714;2022-07-23T05:58:21;14.33;;;11.87;;
8825;SDS011;4449;50.872;4.714;2022-07-23T06:00:50;14.07;;;11.50;;
8825;SDS011;4449;50.872;4.714;2022-07-23T06:03:18;14.10;;;11.68;;
8825;SDS011;4449;50.872;4.714;2022-07-23T06:05:46;13.25;;;11.85;;
8825;SDS011;4449;50.872;4.714;2022-07-23T06:08:14;13.88;;;11.88;;
8825;SDS011;4449;50.872;4.714;2022-07-23T06:10:41;13.40;;;12.00;;
8825;SDS011;4449;50.872;4.714;2022-07-23T06:13:09;15.60;;;12.40;;
8825;SDS011;4449;50.872;4.714;2022-07-23T06:15:37;16.20;;;12.93;;
8825;SDS011;4449;50.872;4.714;2022-07-23T06:18:06;14.40;;;12.93;;
8825;SDS011;4449;50.872;4.714;2022-07-23T06:20:34;15.65;;;13.35;;
8825;SDS011;4449;50.872;4.714;2022-07-23T06:23:02;16.95;;;13.15;;
8825;SDS011;4449;50.872;4.714;2022-07-23T06:25:30;15.20;;;13.00;;
8825;SDS011;4449;50.872;4.714;2022-07-23T06:27:57;14.57;;;12.48;;
8825;SDS011;4449;50.872;4.714;2022-07-23T06:30:25;13.88;;;12.40;;
8825;SDS011;4449;50.872;4.714;2022-07-23T06:32:53;14.18;;;11.48;;
8825;SDS011;4449;50.872;4.714;2022-07-23T06:35:22;15.38;;;11.38;;
8825;SDS011;4449;50.872;4.714;2022-07-23T06:37:50;15.27;;;12.07;;
8825;SDS011;4449;50.872;4.714;2022-07-23T06:40:18;13.83;;;11.43;;
8825;SDS011;4449;50.872;4.714;2022-07-23T06:42:46;14.57;;;12.75;;
8825;SDS011;4449;50.872;4.714;2022-07-23T06:45:13;17.15;;;11.85;;
8825;SDS011;4449;50.872;4.714;2022-07-23T06:47:41;15.60;;;12.25;;
8825;SDS011;4449;50.872;4.714;2022-07-23T06:50:09;13.27;;;11.68;;
8825;SDS011;4449;50.872;4.714;2022-07-23T06:52:38;13.20;;;11.80;;
8825;SDS011;4449;50.872;4.714;2022-07-23T06:55:09;14.00;;;11.68;;
8825;SDS011;4449;50.872;4.714;2022-07-23T06:57:37;14.20;;;12.45;;
8825;SDS011;4449;50.872;4.714;2022-07-23T07:00:06;14.47;;;12.20;;
8825;SDS011;4449;50.872;4.714;2022-07-23T07:02:34;12.88;;;11.50;;
8825;SDS011;4449;50.872;4.714;2022-07-23T07:05:01;15.60;;;12.27;;
8825;SDS011;4449;50.872;4.714;2022-07-23T07:07:29;14.23;;;11.43;;
8825;SDS011;4449;50.872;4.714;2022-07-23T07:10:02;14.68;;;11.57;;
8825;SDS011;4449;50.872;4.714;2022-07-23T07:12:30;13.65;;;11.65;;
8825;SDS011;4449;50.872;4.714;2022-07-23T07:14:57;12.68;;;11.43;;
8825;SDS011;4449;50.872;4.714;2022-07-23T07:17:25;10.65;;;9.63;;
8825;SDS011;4449;50.872;4.714;2022-07-23T07:19:52;11.40;;;9.87;;
8825;SDS011;4449;50.872;4.714;2022-07-23T07:22:20;13.60;;;10.10;;
8825;SDS011;4449;50.872;4.714;2022-07-23T07:24:48;12.77;;;10.25;;
8825;SDS011;4449;50.872;4.714;2022-07-23T07:27:17;12.85;;;9.65;;
8825;SDS011;4449;50.872;4.714;2022-07-23T07:29:45;11.88;;;9.43;;
8825;SDS011;4449;50.872;4.714;2022-07-23T07:32:16;10.70;;;9.40;;
8825;SDS011;4449;50.872;4.714;2022-07-23T07:34:43;12.80;;;10.73;;
8825;SDS011;4449;50.872;4.714;2022-07-23T07:37:11;11.95;;;9.57;;
8825;SDS011;4449;50.872;4.714;2022-07-23T07:39:39;10.90;;;9.32;;
8825;SDS011;4449;50.872;4.714;2022-07-23T07:42:07;11.10;;;9.90;;
8825;SDS011;4449;50.872;4.714;2022-07-23T07:44:36;13.65;;;11.18;;
8825;SDS011;4449;50.872;4.714;2022-07-23T07:47:04;11.55;;;10.35;;
8825;SDS011;4449;50.872;4.714;2022-07-23T07:49:32;11.60;;;10.02;;
8825;SDS011;4449;50.872;4.714;2022-07-23T07:51:59;11.85;;;9.38;;
8825;SDS011;4449;50.872;4.714;2022-07-23T07:54:27;11.15;;;9.10;;
8825;SDS011;4449;50.872;4.714;2022-07-23T07:56:55;9.38;;;8.48;;
8825;SDS011;4449;50.872;4.714;2022-07-23T07:59:23;8.20;;;7.28;;
8825;SDS011;4449;50.872;4.714;2022-07-23T08:01:52;9.00;;;7.57;;
8825;SDS011;4449;50.872;4.714;2022-07-23T08:04:19;7.82;;;7.13;;
8825;SDS011;4449;50.872;4.714;2022-07-23T08:06:47;8.70;;;7.53;;
8825;SDS011;4449;50.872;4.714;2022-07-23T08:09:15;9.75;;;7.22;;
8825;SDS011;4449;50.872;4.714;2022-07-23T08:11:42;8.07;;;7.28;;
8825;SDS011;4449;50.872;4.714;2022-07-23T08:14:10;9.53;;;8.47;;
8825;SDS011;4449;50.872;4.714;2022-07-23T08:16:38;7.68;;;6.72;;
8825;SDS011;4449;50.872;4.714;2022-07-23T08:19:07;7.63;;;6.82;;
8825;SDS011;4449;50.872;4.714;2022-07-23T08:21:34;8.73;;;6.67;;
8825;SDS011;4449;50.872;4.714;2022-07-23T08:24:02;8.50;;;7.45;;
8825;SDS011;4449;50.872;4.714;2022-07-23T08:26:30;7.05;;;6.32;;
8825;SDS011;4449;50.872;4.714;2022-07-23T08:28:58;7.28;;;6.50;;
8825;SDS011;4449;50.872;4.714;2022-07-23T08:31:26;8.10;;;7.32;;
8825;SDS011;4449;50.872;4.714;2022-07-23T08:33:53;8.43;;;5.70;;
8825;SDS011;4449;50.872;4.714;2022-07-23T08:36:24;6.15;;;5.57;;
8825;SDS011;4449;50.872;4.714;2022-07-23T08:38:52;6.65;;;5.90;;
8825;SDS011;4449;50.872;4.714;2022-07-23T08:41:20;6.70;;;5.80;;
8825;SDS011;4449;50.872;4.714;2022-07-23T08:43:48;6.85;;;6.25;;
8825;SDS011;4449;50.872;4.714;2022-07-23T08:46:16;6.90;;;6.20;;
8825;SDS011;4449;50.872;4.714;2022-07-23T08:48:45;6.78;;;5.65;;
8825;SDS011;4449;50.872;4.714;2022-07-23T08:51:14;7.40;;;6.47;;
8825;SDS011;4449;50.872;4.714;2022-07-23T08:53:43;9.43;;;7.10;;
8825;SDS011;4449;50.872;4.714;2022-07-23T08:56:11;8.00;;;6.75;;
8825;SDS011;4449;50.872;4.714;2022-07-23T08:58:39;7.25;;;6.20;;
8825;SDS011;4449;50.872;4.714;2022-07-23T09:01:07;8.95;;;6.93;;
8825;SDS011;4449;50.872;4.714;2022-07-23T09:03:37;7.18;;;6.40;;
8825;SDS011;4449;50.872;4.714;2022-07-23T09:06:05;7.88;;;6.10;;
8825;SDS011;4449;50.872;4.714;2022-07-23T09:08:34;6.80;;;6.10;;
8825;SDS011;4449;50.872;4.714;2022-07-23T09:11:04;7.80;;;6.15;;
8825;SDS011;4449;50.872;4.714;2022-07-23T09:13:34;7.80;;;5.90;;
8825;SDS011;4449;50.872;4.714;2022-07-23T09:16:04;5.93;;;5.10;;
8825;SDS011;4449;50.872;4.714;2022-07-23T09:18:38;6.32;;;5.72;;
8825;SDS011;4449;50.872;4.714;2022-07-23T09:21:07;7.13;;;5.38;;
8825;SDS011;4449;50.872;4.714;2022-07-23T09:23:38;7.30;;;5.32;;
8825;SDS011;4449;50.872;4.714;2022-07-23T09:26:21;6.00;;;5.60;;
8825;SDS011;4449;50.872;4.714;2022-07-23T09:28:50;5.82;;;4.82;;
8825;SDS011;4449;50.872;4.714;2022-07-23T09:31:18;5.47;;;4.88;;
8825;SDS011;4449;50.872;4.714;2022-07-23T09:33:45;5.65;;;4.75;;
8825;SDS011;4449;50.872;4.714;2022-07-23T09:36:13;7.10;;;5.67;;
8825;SDS011;4449;50.872;4.714;2022-07-23T09:38:48;4.97;;;4.47;;
8825;SDS011;4449;50.872;4.714;2022-07-23T09:41:16;4.25;;;3.95;;
8825;SDS011;4449;50.872;4.714;2022-07-23T09:43:47;5.60;;;5.15;;
8825;SDS011;4449;50.872;4.714;2022-07-23T09:46:25;4.82;;;4.32;;
8825;SDS011;4449;50.872;4.714;2022-07-23T09:48:53;6.90;;;5.25;;
8825;SDS011;4449;50.872;4.714;2022-07-23T09:51:22;5.63;;;4.95;;
8825;SDS011;4449;50.872;4.714;2022-07-23T09:53:54;5.55;;;5.00;;
8825;SDS011;4449;50.872;4.714;2022-07-23T09:56:22;5.55;;;5.05;;
8825;SDS011;4449;50.872;4.714;2022-07-23T09:58:52;4.68;;;4.28;;
8825;SDS011;4449;50.872;4.714;2022-07-23T10:01:27;5.10;;;4.60;;
8825;SDS011;4449;50.872;4.714;2022-07-23T10:03:56;6.63;;;4.85;;
8825;SDS011;4449;50.872;4.714;2022-07-23T10:06:24;4.15;;;3.30;;
8825;SDS011;4449;50.872;4.714;2022-07-23T10:08:51;5.40;;;3.58;;
8825;SDS011;4449;50.872;4.714;2022-07-23T10:11:23;4.10;;;3.70;;
8825;SDS011;4449;50.872;4.714;2022-07-23T10:13:52;4.00;;;3.72;;
8825;SDS011;4449;50.872;4.714;2022-07-23T10:16:23;3.47;;;3.17;;
8825;SDS011;4449;50.872;4.714;2022-07-23T10:18:51;3.40;;;3.10;;
8825;SDS011;4449;50.872;4.714;2022-07-23T10:21:21;3.72;;;3.45;;
8825;SDS011;4449;50.872;4.714;2022-07-23T10:24:04;4.05;;;3.75;;
8825;SDS011;4449;50.872;4.714;2022-07-23T10:26:36;2.58;;;2.47;;
8825;SDS011;4449;50.872;4.714;2022-07-23T10:29:10;3.67;;;2.70;;
8825;SDS011;4449;50.872;4.714;2022-07-23T10:31:42;2.92;;;2.70;;
8825;SDS011;4449;50.872;4.714;2022-07-23T10:34:17;4.23;;;3.83;;
8825;SDS011;4449;50.872;4.714;2022-07-23T10:36:47;3.50;;;3.30;;
8825;SDS011;4449;50.872;4.714;2022-07-23T10:39:18;2.90;;;2.70;;
8825;SDS011;4449;50.872;4.714;2022-07-23T10:41:47;3.55;;;3.25;;
8825;SDS011;4449;50.872;4.714;2022-07-23T10:44:17;2.83;;;2.63;;
8825;SDS011;4449;50.872;4.714;2022-07-23T10:46:54;3.20;;;3.00;;
8825;SDS011;4449;50.872;4.714;2022-07-23T10:49:34;3.35;;;3.15;;
8825;SDS011;4449;50.872;4.714;2022-07-23T11:51:34;2.90;;;2.70;;
8825;SDS011;4449;50.872;4.714;2022-07-23T11:54:05;3.22;;;2.78;;
8825;SDS011;4449;50.872;4.714;2022-07-23T11:56:33;3.17;;;2.60;;
8825;SDS011;4449;50.872;4.714;2022-07-23T11:59:00;2.63;;;2.53;;
8825;SDS011;4449;50.872;4.714;2022-07-23T12:01:30;3.75;;;3.40;;
8825;SDS011;4449;50.872;4.714;2022-07-23T12:04:01;2.95;;;2.75;;
8825;SDS011;4449;50.872;4.714;2022-07-23T12:06:29;2.92;;;2.72;;
8825;SDS011;4449;50.872;4.714;2022-07-23T12:08:58;3.03;;;2.83;;
8825;SDS011;4449;50.872;4.714;2022-07-23T12:11:26;2.72;;;2.60;;
8825;SDS011;4449;50.872;4.714;2022-07-23T12:13:55;2.88;;;2.53;;
8825;SDS011;4449;50.872;4.714;2022-07-23T12:16:23;3.23;;;3.00;;
8825;SDS011;4449;50.872;4.714;2022-07-23T12:18:51;3.55;;;3.08;;
8825;SDS011;4449;50.872;4.714;2022-07-23T12:21:19;3.00;;;2.80;;
8825;SDS011;4449;50.872;4.714;2022-07-23T12:23:47;4.43;;;4.05;;
8825;SDS011;4449;50.872;4.714;2022-07-23T12:26:17;4.00;;;2.70;;
8825;SDS011;4449;50.872;4.714;2022-07-23T12:28:44;5.90;;;5.37;;
8825;SDS011;4449;50.872;4.714;2022-07-23T12:31:25;3.05;;;2.67;;
8825;SDS011;4449;50.872;4.714;2022-07-23T12:33:52;2.90;;;2.67;;
8825;SDS011;4449;50.872;4.714;2022-07-23T12:36:20;3.10;;;2.90;;
8825;SDS011;4449;50.872;4.714;2022-07-23T12:39:04;3.03;;;2.83;;
8825;SDS011;4449;50.872;4.714;2022-07-23T12:44:16;3.50;;;3.30;;
8825;SDS011;4449;50.872;4.714;2022-07-23T12:46:43;2.90;;;2.70;;
8825;SDS011;4449;50.872;4.714;2022-07-23T12:49:24;3.08;;;2.80;;
8825;SDS011;4449;50.872;4.714;2022-07-23T12:51:52;4.93;;;3.33;;
8825;SDS011;4449;50.872;4.714;2022-07-23T12:54:26;3.00;;;2.90;;
8825;SDS011;4449;50.872;4.714;2022-07-23T12:56:54;3.05;;;2.88;;
8825;SDS011;4449;50.872;4.714;2022-07-23T12:59:23;3.33;;;2.85;;
8825;SDS011;4449;50.872;4.714;2022-07-23T13:01:53;3.05;;;2.90;;
8825;SDS011;4449;50.872;4.714;2022-07-23T13:04:23;3.30;;;3.00;;
8825;SDS011;4449;50.872;4.714;2022-07-23T13:06:52;2.75;;;2.65;;
8825;SDS011;4449;50.872;4.714;2022-07-23T13:09:21;3.30;;;3.10;;
8825;SDS011;4449;50.872;4.714;2022-07-23T13:11:50;3.17;;;2.95;;
8825;SDS011;4449;50.872;4.714;2022-07-23T13:14:18;3.13;;;2.90;;
8825;SDS011;4449;50.872;4.714;2022-07-23T13:16:48;3.42;;;3.13;;
8825;SDS011;4449;50.872;4.714;2022-07-23T13:19:16;4.85;;;4.35;;
8825;SDS011;4449;50.872;4.714;2022-07-23T13:21:44;3.37;;;2.83;;
8825;SDS011;4449;50.872;4.714;2022-07-23T13:24:12;3.30;;;3.10;;
8825;SDS011;4449;50.872;4.714;2022-07-23T13:26:40;2.83;;;2.67;;
8825;SDS011;4449;50.872;4.714;2022-07-23T13:29:08;3.25;;;3.05;;
8825;SDS011;4449;50.872;4.714;2022-07-23T13:31:36;3.85;;;3.10;;
8825;SDS011;4449;50.872;4.714;2022-07-23T13:34:05;3.17;;;2.97;;
8825;SDS011;4449;50.872;4.714;2022-07-23T13:36:33;2.92;;;2.83;;
8825;SDS011;4449;50.872;4.714;2022-07-23T13:39:01;3.40;;;3.10;;
8825;SDS011;4449;50.872;4.714;2022-07-23T13:41:29;3.45;;;3.15;;
8825;SDS011;4449;50.872;4.714;2022-07-23T13:43:57;3.70;;;3.40;;
8825;SDS011;4449;50.872;4.714;2022-07-23T13:46:24;3.28;;;3.08;;
8825;SDS011;4449;50.872;4.714;2022-07-23T13:48:52;3.10;;;2.85;;
8825;SDS011;4449;50.872;4.714;2022-07-23T13:51:21;3.45;;;3.03;;
8825;SDS011;4449;50.872;4.714;2022-07-23T13:53:50;3.40;;;3.20;;
8825;SDS011;4449;50.872;4.714;2022-07-23T13:56:17;3.40;;;3.20;;
8825;SDS011;4449;50.872;4.714;2022-07-23T13:58:45;3.50;;;3.30;;
8825;SDS011;4449;50.872;4.714;2022-07-23T14:01:13;3.78;;;3.47;;
8825;SDS011;4449;50.872;4.714;2022-07-23T14:03:40;3.53;;;3.33;;
8825;SDS011;4449;50.872;4.714;2022-07-23T14:06:08;3.42;;;3.22;;
8825;SDS011;4449;50.872;4.714;2022-07-23T14:08:37;3.47;;;3.17;;
8825;SDS011;4449;50.872;4.714;2022-07-23T14:11:04;4.03;;;3.72;;
8825;SDS011;4449;50.872;4.714;2022-07-23T14:13:32;4.03;;;3.65;;
8825;SDS011;4449;50.872;4.714;2022-07-23T14:16:00;3.30;;;3.08;;
8825;SDS011;4449;50.872;4.714;2022-07-23T14:18:28;4.05;;;3.30;;
8825;SDS011;4449;50.872;4.714;2022-07-23T14:20:55;3.80;;;3.47;;
8825;SDS011;4449;50.872;4.714;2022-07-23T14:23:23;3.70;;;3.40;;
8825;SDS011;4449;50.872;4.714;2022-07-23T14:25:52;3.30;;;3.10;;
8825;SDS011;4449;50.872;4.714;2022-07-23T14:28:20;3.90;;;3.67;;
8825;SDS011;4449;50.872;4.714;2022-07-23T14:30:48;3.60;;;3.30;;
8825;SDS011;4449;50.872;4.714;2022-07-23T14:33:15;3.22;;;3.13;;
8825;SDS011;4449;50.872;4.714;2022-07-23T14:35:43;4.18;;;3.60;;
8825;SDS011;4449;50.872;4.714;2022-07-23T14:38:11;3.90;;;3.47;;
8825;SDS011;4449;50.872;4.714;2022-07-23T14:40:39;3.65;;;3.33;;
8825;SDS011;4449;50.872;4.714;2022-07-23T14:43:08;4.10;;;3.77;;
8825;SDS011;4449;50.872;4.714;2022-07-23T14:45:36;3.58;;;3.35;;
8825;SDS011;4449;50.872;4.714;2022-07-23T14:48:04;4.13;;;3.43;;
8825;SDS011;4449;50.872;4.714;2022-07-23T14:50:31;3.88;;;3.58;;
8825;SDS011;4449;50.872;4.714;2022-07-23T14:52:59;3.95;;;3.65;;
8825;SDS011;4449;50.872;4.714;2022-07-23T14:55:27;3.70;;;3.50;;
8825;SDS011;4449;50.872;4.714;2022-07-23T14:57:55;5.47;;;3.67;;
8825;SDS011;4449;50.872;4.714;2022-07-23T15:00:24;3.78;;;3.58;;
8825;SDS011;4449;50.872;4.714;2022-07-23T15:02:55;3.40;;;3.30;;
8825;SDS011;4449;50.872;4.714;2022-07-23T15:05:23;3.58;;;3.38;;
8825;SDS011;4449;50.872;4.714;2022-07-23T15:07:50;4.00;;;3.80;;
8825;SDS011;4449;50.872;4.714;2022-07-23T15:10:18;4.22;;;3.92;;
8825;SDS011;4449;50.872;4.714;2022-07-23T15:12:46;4.00;;;3.70;;
8825;SDS011;4449;50.872;4.714;2022-07-23T15:15:17;3.30;;;3.20;;
8825;SDS011;4449;50.872;4.714;2022-07-23T15:17:46;4.10;;;3.90;;
8825;SDS011;4449;50.872;4.714;2022-07-23T15:20:14;3.63;;;3.42;;
8825;SDS011;4449;50.872;4.714;2022-07-23T15:22:44;3.72;;;3.53;;
8825;SDS011;4449;50.872;4.714;2022-07-23T15:25:13;4.13;;;3.80;;
8825;SDS011;4449;50.872;4.714;2022-07-23T15:27:41;5.22;;;4.10;;
8825;SDS011;4449;50.872;4.714;2022-07-23T15:30:09;4.22;;;3.80;;
8825;SDS011;4449;50.872;4.714;2022-07-23T15:32:37;4.30;;;4.00;;
8825;SDS011;4449;50.872;4.714;2022-07-23T15:35:07;4.38;;;4.07;;
8825;SDS011;4449;50.872;4.714;2022-07-23T15:37:35;4.73;;;4.40;;
8825;SDS011;4449;50.872;4.714;2022-07-23T15:40:03;3.88;;;3.70;;
8825;SDS011;4449;50.872;4.714;2022-07-23T15:42:31;4.00;;;3.70;;
8825;SDS011;4449;50.872;4.714;2022-07-23T15:44:59;4.20;;;3.90;;
8825;SDS011;4449;50.872;4.714;2022-07-23T15:47:27;3.67;;;3.50;;
8825;SDS011;4449;50.872;4.714;2022-07-23T15:49:55;4.57;;;4.28;;
8825;SDS011;4449;50.872;4.714;2022-07-23T15:52:24;3.95;;;3.75;;
8825;SDS011;4449;50.872;4.714;2022-07-23T15:54:52;4.80;;;4.10;;
8825;SDS011;4449;50.872;4.714;2022-07-23T15:57:20;5.10;;;4.70;;
8825;SDS011;4449;50.872;4.714;2022-07-23T15:59:47;4.72;;;4.38;;
8825;SDS011;4449;50.872;4.714;2022-07-23T16:02:18;4.65;;;4.25;;
8825;SDS011;4449;50.872;4.714;2022-07-23T16:04:46;5.55;;;5.05;;
8825;SDS011;4449;50.872;4.714;2022-07-23T16:07:15;4.75;;;4.35;;
8825;SDS011;4449;50.872;4.714;2022-07-23T16:09:45;4.73;;;4.30;;